Terminal Aerodrome Forecast
Issued by NWS

Home | Current Version | Previous Version | Text Only | Print | Product List | Glossary On
Versions: 1 2 3 4 5 6 7 8 9 10 11 12 13 14 15 16 17 18 19 20 21 22 23
000
FTUS45 KBOU 300157 AAA
TAFAPA
TAF AMD
KAPA 300157Z 3002/3024 24008KT P6SM VCTS SCT090CB BKN120
      TEMPO 3002/3006 VRB12G24KT -TSRA BKN090CB
     FM300600 20008KT P6SM SCT120 BKN200
     FM301400 25006KT P6SM FEW120 SCT200
     FM301800 03006KT P6SM SCT090 BKN120 PROB30 3019/3023 VRB12G24KT
      -TSRA BKN090CB=

USA.gov is the U.S. government's official web portal to all federal, state and local government web resources and services.